Terminal Aerodrome Forecast
Issued by NWS

Home | Current Version | Previous Version | Text Only | Print | Product List | Glossary On
Versions: 1 2 3 4 5 6 7 8 9 10 11 12 13 14 15 16 17 18 19 20 21 22 23 24 25
000
FTUS45 KTFX 051527 AAA
TAFCTB
TAF AMD
KCTB 051527Z 0515/0612 35009KT 6SM -RA BR BKN015 OVC035
      TEMPO 0515/0519 2SM RA BR BKN003
     FM060200 27011KT P6SM VCSH SCT015 OVC025=

USA.gov is the U.S. government's official web portal to all federal, state and local government web resources and services.